sensor_id;sensor_type;location;lat;lon;timestamp;pressure;altitude;pressure_sealevel;temperature;humidity
10014;BME280;45684;48.358;10.746;2023-03-22T00:00:26;96021.78;;;9.94;100.00
10014;BME280;45684;48.358;10.746;2023-03-22T00:02:55;96024.78;;;10.01;100.00
10014;BME280;45684;48.358;10.746;2023-03-22T00:05:24;96019.88;;;10.03;100.00
10014;BME280;45684;48.358;10.746;2023-03-22T00:07:51;96031.94;;;10.06;100.00
10014;BME280;45684;48.358;10.746;2023-03-22T00:10:23;96013.03;;;10.06;100.00
10014;BME280;45684;48.358;10.746;2023-03-22T00:12:58;96017.97;;;10.04;100.00
10014;BME280;45684;48.358;10.746;2023-03-22T00:15:32;96015.09;;;10.00;100.00
10014;BME280;45684;48.358;10.746;2023-03-22T00:18:02;96014.63;;;9.98;100.00
10014;BME280;45684;48.358;10.746;2023-03-22T00:20:31;96026.06;;;9.95;100.00
10014;BME280;45684;48.358;10.746;2023-03-22T00:23:04;96022.75;;;9.98;100.00
10014;BME280;45684;48.358;10.746;2023-03-22T00:25:32;96017.97;;;9.95;100.00
10014;BME280;45684;48.358;10.746;2023-03-22T00:28:00;96026.38;;;9.93;100.00
10014;BME280;45684;48.358;10.746;2023-03-22T00:30:28;96031.94;;;9.97;100.00
10014;BME280;45684;48.358;10.746;2023-03-22T00:32:57;96029.06;;;10.02;100.00
10014;BME280;45684;48.358;10.746;2023-03-22T00:35:25;96017.97;;;10.04;100.00
10014;BME280;45684;48.358;10.746;2023-03-22T00:37:53;96019.56;;;10.05;100.00
10014;BME280;45684;48.358;10.746;2023-03-22T00:40:22;96017.34;;;9.98;100.00
10014;BME280;45684;48.358;10.746;2023-03-22T00:42:50;96024.94;;;9.96;100.00
10014;BME280;45684;48.358;10.746;2023-03-22T00:45:18;96019.88;;;10.03;100.00
10014;BME280;45684;48.358;10.746;2023-03-22T00:47:46;96019.09;;;10.03;100.00
10014;BME280;45684;48.358;10.746;2023-03-22T00:50:15;96007.94;;;9.95;100.00
10014;BME280;45684;48.358;10.746;2023-03-22T00:52:43;96000.97;;;9.94;100.00
10014;BME280;45684;48.358;10.746;2023-03-22T00:55:11;96007.16;;;9.95;100.00
10014;BME280;45684;48.358;10.746;2023-03-22T00:57:39;96003.03;;;9.89;100.00
10014;BME280;45684;48.358;10.746;2023-03-22T01:00:08;96014.13;;;9.87;100.00
10014;BME280;45684;48.358;10.746;2023-03-22T01:02:39;96019.22;;;9.89;100.00
10014;BME280;45684;48.358;10.746;2023-03-22T01:05:12;96035.72;;;9.87;100.00
10014;BME280;45684;48.358;10.746;2023-03-22T01:07:43;96026.50;;;9.88;100.00
10014;BME280;45684;48.358;10.746;2023-03-22T01:10:11;96027.66;;;9.96;100.00
10014;BME280;45684;48.358;10.746;2023-03-22T01:12:39;96023.06;;;10.05;100.00
10014;BME280;45684;48.358;10.746;2023-03-22T01:15:08;96021.13;;;10.06;100.00
10014;BME280;45684;48.358;10.746;2023-03-22T01:17:36;96020.03;;;10.07;100.00
10014;BME280;45684;48.358;10.746;2023-03-22T01:20:05;96007.47;;;10.11;100.00
10014;BME280;45684;48.358;10.746;2023-03-22T01:22:34;96002.56;;;10.13;100.00
10014;BME280;45684;48.358;10.746;2023-03-22T01:25:05;96010.19;;;10.19;100.00
10014;BME280;45684;48.358;10.746;2023-03-22T01:27:32;96003.69;;;10.12;100.00
10014;BME280;45684;48.358;10.746;2023-03-22T01:30:00;95998.91;;;10.09;100.00
10014;BME280;45684;48.358;10.746;2023-03-22T01:32:29;95991.41;;;10.06;100.00
10014;BME280;45684;48.358;10.746;2023-03-22T01:34:56;95990.31;;;9.98;100.00
10014;BME280;45684;48.358;10.746;2023-03-22T01:37:27;95997.47;;;9.94;100.00
10014;BME280;45684;48.358;10.746;2023-03-22T01:39:55;95986.31;;;9.87;100.00
10014;BME280;45684;48.358;10.746;2023-03-22T01:42:25;95989.00;;;9.78;100.00
10014;BME280;45684;48.358;10.746;2023-03-22T01:45:32;95981.53;;;9.66;100.00
10014;BME280;45684;48.358;10.746;2023-03-22T01:48:04;95985.19;;;9.70;100.00
10014;BME280;45684;48.358;10.746;2023-03-22T01:50:37;95982.28;;;9.50;100.00
10014;BME280;45684;48.358;10.746;2023-03-22T01:53:09;95982.88;;;9.38;100.00
10014;BME280;45684;48.358;10.746;2023-03-22T01:55:40;95984.00;;;9.45;100.00
10014;BME280;45684;48.358;10.746;2023-03-22T01:58:14;95986.66;;;9.37;100.00
10014;BME280;45684;48.358;10.746;2023-03-22T02:00:51;95975.19;;;9.23;100.00
10014;BME280;45684;48.358;10.746;2023-03-22T02:03:49;95983.00;;;9.24;100.00
10014;BME280;45684;48.358;10.746;2023-03-22T02:06:20;95983.72;;;9.07;100.00
10014;BME280;45684;48.358;10.746;2023-03-22T02:08:54;95978.19;;;9.12;100.00
10014;BME280;45684;48.358;10.746;2023-03-22T02:11:28;95973.91;;;9.11;100.00
10014;BME280;45684;48.358;10.746;2023-03-22T02:17:39;95974.91;;;8.93;100.00
10014;BME280;45684;48.358;10.746;2023-03-22T02:24:19;95973.63;;;8.90;100.00
10014;BME280;45684;48.358;10.746;2023-03-22T02:27:09;95976.91;;;8.79;100.00
10014;BME280;45684;48.358;10.746;2023-03-22T02:29:44;95973.56;;;8.73;100.00
10014;BME280;45684;48.358;10.746;2023-03-22T02:32:38;95972.25;;;8.71;100.00
10014;BME280;45684;48.358;10.746;2023-03-22T02:35:40;95955.94;;;8.76;100.00
10014;BME280;45684;48.358;10.746;2023-03-22T02:38:55;95956.59;;;8.73;100.00
10014;BME280;45684;48.358;10.746;2023-03-22T02:41:38;95947.72;;;8.72;100.00
10014;BME280;45684;48.358;10.746;2023-03-22T02:44:16;95953.63;;;8.83;100.00
10014;BME280;45684;48.358;10.746;2023-03-22T02:46:57;95955.94;;;8.76;100.00
10014;BME280;45684;48.358;10.746;2023-03-22T02:49:32;95965.16;;;8.75;100.00
10014;BME280;45684;48.358;10.746;2023-03-22T02:52:09;95961.47;;;8.71;100.00
10014;BME280;45684;48.358;10.746;2023-03-22T02:54:49;95953.66;;;8.60;100.00
10014;BME280;45684;48.358;10.746;2023-03-22T02:57:23;95950.97;;;8.60;100.00
10014;BME280;45684;48.358;10.746;2023-03-22T02:59:55;95954.09;;;8.54;100.00
10014;BME280;45684;48.358;10.746;2023-03-22T03:02:25;95956.44;;;8.47;100.00
10014;BME280;45684;48.358;10.746;2023-03-22T03:04:55;95954.97;;;8.40;100.00
10014;BME280;45684;48.358;10.746;2023-03-22T03:07:26;95946.41;;;8.25;100.00
10014;BME280;45684;48.358;10.746;2023-03-22T03:09:57;95944.88;;;8.10;100.00
10014;BME280;45684;48.358;10.746;2023-03-22T03:12:26;95949.91;;;8.03;100.00
10014;BME280;45684;48.358;10.746;2023-03-22T03:14:56;95942.25;;;7.96;100.00
10014;BME280;45684;48.358;10.746;2023-03-22T03:17:35;95947.28;;;7.89;100.00
10014;BME280;45684;48.358;10.746;2023-03-22T03:20:17;95938.22;;;7.85;100.00
10014;BME280;45684;48.358;10.746;2023-03-22T03:22:58;95942.72;;;7.76;100.00
10014;BME280;45684;48.358;10.746;2023-03-22T03:25:36;95949.41;;;7.64;100.00
10014;BME280;45684;48.358;10.746;2023-03-22T03:28:14;95954.41;;;7.57;100.00
10014;BME280;45684;48.358;10.746;2023-03-22T03:30:54;95956.13;;;7.53;100.00
10014;BME280;45684;48.358;10.746;2023-03-22T03:33:24;95951.84;;;7.38;100.00
10014;BME280;45684;48.358;10.746;2023-03-22T03:35:58;95958.84;;;7.26;100.00
10014;BME280;45684;48.358;10.746;2023-03-22T03:38:28;95956.56;;;7.19;100.00
10014;BME280;45684;48.358;10.746;2023-03-22T03:41:01;95956.25;;;7.21;100.00
10014;BME280;45684;48.358;10.746;2023-03-22T03:43:30;95955.66;;;7.10;100.00
10014;BME280;45684;48.358;10.746;2023-03-22T03:45:59;95965.09;;;7.07;100.00
10014;BME280;45684;48.358;10.746;2023-03-22T03:48:28;95965.19;;;6.88;100.00
10014;BME280;45684;48.358;10.746;2023-03-22T03:50:58;95967.06;;;6.74;100.00
10014;BME280;45684;48.358;10.746;2023-03-22T03:53:28;95971.13;;;6.58;100.00
10014;BME280;45684;48.358;10.746;2023-03-22T03:55:56;95969.25;;;6.58;100.00
10014;BME280;45684;48.358;10.746;2023-03-22T03:58:29;95967.31;;;6.45;100.00
10014;BME280;45684;48.358;10.746;2023-03-22T04:00:57;95966.88;;;6.38;100.00
10014;BME280;45684;48.358;10.746;2023-03-22T04:03:45;95960.50;;;6.34;100.00
10014;BME280;45684;48.358;10.746;2023-03-22T04:06:33;95957.91;;;6.29;100.00
10014;BME280;45684;48.358;10.746;2023-03-22T04:09:07;95955.13;;;6.20;100.00
10014;BME280;45684;48.358;10.746;2023-03-22T04:11:40;95953.72;;;6.23;100.00
10014;BME280;45684;48.358;10.746;2023-03-22T04:14:09;95945.97;;;6.21;100.00
10014;BME280;45684;48.358;10.746;2023-03-22T04:16:37;95952.22;;;6.17;100.00
10014;BME280;45684;48.358;10.746;2023-03-22T04:19:08;95949.69;;;6.06;100.00
10014;BME280;45684;48.358;10.746;2023-03-22T04:21:36;95944.38;;;6.01;100.00
10014;BME280;45684;48.358;10.746;2023-03-22T04:24:06;95948.28;;;5.90;100.00
10014;BME280;45684;48.358;10.746;2023-03-22T04:26:38;95943.94;;;5.75;100.00
10014;BME280;45684;48.358;10.746;2023-03-22T04:29:14;95948.94;;;5.82;100.00
10014;BME280;45684;48.358;10.746;2023-03-22T04:31:47;95944.75;;;5.76;100.00
10014;BME280;45684;48.358;10.746;2023-03-22T04:34:38;95946.63;;;5.75;100.00
10014;BME280;45684;48.358;10.746;2023-03-22T04:37:12;95944.59;;;5.67;100.00
10014;BME280;45684;48.358;10.746;2023-03-22T04:39:59;95941.69;;;5.63;100.00
10014;BME280;45684;48.358;10.746;2023-03-22T04:42:35;95945.53;;;5.57;100.00
10014;BME280;45684;48.358;10.746;2023-03-22T04:45:25;95944.44;;;5.58;100.00
10014;BME280;45684;48.358;10.746;2023-03-22T04:47:58;95948.78;;;5.54;100.00
10014;BME280;45684;48.358;10.746;2023-03-22T04:50:26;95946.78;;;5.46;100.00
10014;BME280;45684;48.358;10.746;2023-03-22T04:52:58;95950.50;;;5.45;100.00
10014;BME280;45684;48.358;10.746;2023-03-22T04:55:26;95952.13;;;5.46;100.00
10014;BME280;45684;48.358;10.746;2023-03-22T04:57:55;95955.44;;;5.38;100.00
10014;BME280;45684;48.358;10.746;2023-03-22T05:00:25;95957.59;;;5.36;100.00
10014;BME280;45684;48.358;10.746;2023-03-22T05:02:56;95953.84;;;5.37;100.00
10014;BME280;45684;48.358;10.746;2023-03-22T05:05:36;95952.84;;;5.33;100.00
10014;BME280;45684;48.358;10.746;2023-03-22T05:08:05;95956.59;;;5.32;100.00
10014;BME280;45684;48.358;10.746;2023-03-22T05:10:33;95954.66;;;5.37;100.00
10014;BME280;45684;48.358;10.746;2023-03-22T05:13:01;95954.94;;;5.36;100.00
10014;BME280;45684;48.358;10.746;2023-03-22T05:15:32;95959.84;;;5.29;100.00
10014;BME280;45684;48.358;10.746;2023-03-22T05:18:02;95955.84;;;5.26;100.00
10014;BME280;45684;48.358;10.746;2023-03-22T05:20:30;95963.34;;;5.29;100.00
10014;BME280;45684;48.358;10.746;2023-03-22T05:23:17;95962.75;;;5.32;100.00
10014;BME280;45684;48.358;10.746;2023-03-22T05:25:51;95967.34;;;5.32;100.00
10014;BME280;45684;48.358;10.746;2023-03-22T05:28:20;95967.59;;;5.30;100.00
10014;BME280;45684;48.358;10.746;2023-03-22T05:31:08;95968.91;;;5.33;100.00
10014;BME280;45684;48.358;10.746;2023-03-22T05:33:43;95967.25;;;5.37;100.00
10014;BME280;45684;48.358;10.746;2023-03-22T05:36:14;95974.22;;;5.38;100.00
10014;BME280;45684;48.358;10.746;2023-03-22T05:39:00;95970.09;;;5.46;100.00
10014;BME280;45684;48.358;10.746;2023-03-22T05:41:28;95962.25;;;5.49;100.00
10014;BME280;45684;48.358;10.746;2023-03-22T05:43:57;95963.81;;;5.55;100.00
10014;BME280;45684;48.358;10.746;2023-03-22T05:46:26;95966.41;;;5.60;100.00
10014;BME280;45684;48.358;10.746;2023-03-22T05:49:23;95967.94;;;5.67;100.00
10014;BME280;45684;48.358;10.746;2023-03-22T05:51:52;95973.31;;;5.67;100.00
10014;BME280;45684;48.358;10.746;2023-03-22T05:54:23;95971.19;;;5.63;100.00
10014;BME280;45684;48.358;10.746;2023-03-22T05:56:52;95983.25;;;5.66;100.00
10014;BME280;45684;48.358;10.746;2023-03-22T05:59:21;95981.94;;;5.82;100.00
10014;BME280;45684;48.358;10.746;2023-03-22T06:01:51;95974.91;;;5.86;100.00
10014;BME280;45684;48.358;10.746;2023-03-22T06:04:22;95973.59;;;5.84;100.00
10014;BME280;45684;48.358;10.746;2023-03-22T06:07:11;95976.78;;;5.86;100.00
10014;BME280;45684;48.358;10.746;2023-03-22T06:10:02;95979.75;;;5.84;100.00
10014;BME280;45684;48.358;10.746;2023-03-22T06:12:31;95981.88;;;5.87;100.00
10014;BME280;45684;48.358;10.746;2023-03-22T06:15:07;95966.53;;;5.93;100.00
10014;BME280;45684;48.358;10.746;2023-03-22T06:17:37;95970.34;;;6.06;100.00
10014;BME280;45684;48.358;10.746;2023-03-22T06:20:11;95960.44;;;6.06;100.00
10014;BME280;45684;48.358;10.746;2023-03-22T06:22:45;95967.31;;;6.12;100.00
10014;BME280;45684;48.358;10.746;2023-03-22T06:25:14;95967.72;;;6.20;100.00
10014;BME280;45684;48.358;10.746;2023-03-22T06:27:44;95965.88;;;6.34;100.00
10014;BME280;45684;48.358;10.746;2023-03-22T06:30:12;95969.47;;;6.43;100.00
10014;BME280;45684;48.358;10.746;2023-03-22T06:32:59;95974.09;;;6.56;100.00
10014;BME280;45684;48.358;10.746;2023-03-22T06:35:34;95973.84;;;6.72;100.00
10014;BME280;45684;48.358;10.746;2023-03-22T06:38:03;95977.63;;;6.84;100.00
10014;BME280;45684;48.358;10.746;2023-03-22T06:40:32;95973.94;;;6.94;100.00
10014;BME280;45684;48.358;10.746;2023-03-22T06:43:01;95979.34;;;7.08;100.00
10014;BME280;45684;48.358;10.746;2023-03-22T06:45:34;95980.66;;;7.24;100.00
10014;BME280;45684;48.358;10.746;2023-03-22T06:48:05;95980.53;;;7.43;100.00
10014;BME280;45684;48.358;10.746;2023-03-22T06:50:49;95976.44;;;7.59;100.00
10014;BME280;45684;48.358;10.746;2023-03-22T06:53:24;95971.03;;;7.73;100.00
10014;BME280;45684;48.358;10.746;2023-03-22T06:55:52;95974.47;;;7.87;100.00
10014;BME280;45684;48.358;10.746;2023-03-22T06:58:23;95976.06;;;8.02;100.00
10014;BME280;45684;48.358;10.746;2023-03-22T07:00:51;95981.19;;;8.12;100.00
10014;BME280;45684;48.358;10.746;2023-03-22T07:03:22;95971.75;;;8.24;100.00
10014;BME280;45684;48.358;10.746;2023-03-22T07:05:59;95979.31;;;8.35;100.00
10014;BME280;45684;48.358;10.746;2023-03-22T07:08:30;95977.66;;;8.48;100.00
10014;BME280;45684;48.358;10.746;2023-03-22T07:10:57;95975.09;;;8.65;100.00
10014;BME280;45684;48.358;10.746;2023-03-22T07:13:26;95986.09;;;8.78;100.00
10014;BME280;45684;48.358;10.746;2023-03-22T07:15:59;95981.72;;;8.90;100.00
10014;BME280;45684;48.358;10.746;2023-03-22T07:18:39;95977.19;;;9.08;100.00
10014;BME280;45684;48.358;10.746;2023-03-22T07:21:08;95987.75;;;9.27;100.00
10014;BME280;45684;48.358;10.746;2023-03-22T07:23:38;95978.56;;;9.37;100.00
10014;BME280;45684;48.358;10.746;2023-03-22T07:26:10;95980.72;;;9.57;100.00
10014;BME280;45684;48.358;10.746;2023-03-22T07:28:41;95989.78;;;9.79;100.00
10014;BME280;45684;48.358;10.746;2023-03-22T07:31:12;95983.00;;;9.90;100.00
10014;BME280;45684;48.358;10.746;2023-03-22T07:34:02;95993.81;;;10.07;100.00
10014;BME280;45684;48.358;10.746;2023-03-22T07:36:37;95983.03;;;10.25;100.00
10014;BME280;45684;48.358;10.746;2023-03-22T07:39:08;95989.22;;;10.42;100.00
10014;BME280;45684;48.358;10.746;2023-03-22T07:41:41;95993.34;;;10.48;100.00
10014;BME280;45684;48.358;10.746;2023-03-22T07:44:31;95990.63;;;10.75;100.00
10014;BME280;45684;48.358;10.746;2023-03-22T07:47:19;95994.56;;;10.94;100.00
10014;BME280;45684;48.358;10.746;2023-03-22T07:50:19;96000.38;;;11.14;100.00
10014;BME280;45684;48.358;10.746;2023-03-22T07:52:52;95997.00;;;11.26;100.00
10014;BME280;45684;48.358;10.746;2023-03-22T07:55:20;95992.63;;;11.42;100.00
10014;BME280;45684;48.358;10.746;2023-03-22T07:57:48;95987.13;;;11.59;100.00
10014;BME280;45684;48.358;10.746;2023-03-22T08:00:17;95986.31;;;11.67;100.00
10014;BME280;45684;48.358;10.746;2023-03-22T08:02:55;95985.16;;;11.68;100.00
10014;BME280;45684;48.358;10.746;2023-03-22T08:05:53;95978.25;;;11.80;100.00
10014;BME280;45684;48.358;10.746;2023-03-22T08:08:24;95984.06;;;11.99;100.00
10014;BME280;45684;48.358;10.746;2023-03-22T08:10:52;95979.03;;;12.10;100.00
10014;BME280;45684;48.358;10.746;2023-03-22T08:13:20;95991.06;;;12.21;100.00
10014;BME280;45684;48.358;10.746;2023-03-22T08:15:48;96000.44;;;12.44;100.00
10014;BME280;45684;48.358;10.746;2023-03-22T08:18:18;96000.16;;;12.58;100.00
10014;BME280;45684;48.358;10.746;2023-03-22T08:20:53;95996.97;;;12.77;100.00
10014;BME280;45684;48.358;10.746;2023-03-22T08:23:22;95989.75;;;12.81;100.00
10014;BME280;45684;48.358;10.746;2023-03-22T08:26:25;95993.00;;;13.08;100.00
10014;BME280;45684;48.358;10.746;2023-03-22T08:28:55;95999.00;;;13.13;98.66
10014;BME280;45684;48.358;10.746;2023-03-22T08:31:24;95991.31;;;13.15;98.01
10014;BME280;45684;48.358;10.746;2023-03-22T08:33:52;95993.53;;;13.34;96.09
10014;BME280;45684;48.358;10.746;2023-03-22T08:36:22;95993.16;;;13.36;89.05
10014;BME280;45684;48.358;10.746;2023-03-22T08:39:00;95991.59;;;13.47;90.21
10014;BME280;45684;48.358;10.746;2023-03-22T08:41:42;95991.59;;;13.59;89.84
10014;BME280;45684;48.358;10.746;2023-03-22T08:44:10;95990.59;;;13.76;86.99
10014;BME280;45684;48.358;10.746;2023-03-22T08:46:39;95993.75;;;13.90;85.73
10014;BME280;45684;48.358;10.746;2023-03-22T08:49:06;95983.06;;;14.10;84.75
10014;BME280;45684;48.358;10.746;2023-03-22T08:51:46;95984.16;;;14.21;82.62
10014;BME280;45684;48.358;10.746;2023-03-22T08:54:18;95985.41;;;14.23;80.57
10014;BME280;45684;48.358;10.746;2023-03-22T08:56:59;95983.34;;;14.33;78.54
10014;BME280;45684;48.358;10.746;2023-03-22T08:59:38;95980.13;;;14.55;76.06
10014;BME280;45684;48.358;10.746;2023-03-22T09:02:28;95972.69;;;14.68;72.67
10014;BME280;45684;48.358;10.746;2023-03-22T09:04:57;95967.34;;;14.71;71.18
10014;BME280;45684;48.358;10.746;2023-03-22T09:07:27;95967.94;;;14.93;71.66
10014;BME280;45684;48.358;10.746;2023-03-22T09:10:18;95966.22;;;15.16;69.59
10014;BME280;45684;48.358;10.746;2023-03-22T09:12:50;95965.22;;;15.24;66.56
10014;BME280;45684;48.358;10.746;2023-03-22T09:15:18;95961.53;;;15.32;63.28
10014;BME280;45684;48.358;10.746;2023-03-22T09:17:59;95959.53;;;15.45;63.97
10014;BME280;45684;48.358;10.746;2023-03-22T09:20:27;95947.66;;;15.53;64.00
10014;BME280;45684;48.358;10.746;2023-03-22T09:22:57;95952.13;;;15.77;60.34
10014;BME280;45684;48.358;10.746;2023-03-22T09:25:25;95948.81;;;16.03;56.40
10014;BME280;45684;48.358;10.746;2023-03-22T09:27:53;95950.69;;;15.99;55.33
10014;BME280;45684;48.358;10.746;2023-03-22T09:30:21;95944.78;;;15.97;54.80
10014;BME280;45684;48.358;10.746;2023-03-22T09:32:49;95934.03;;;16.04;54.81
10014;BME280;45684;48.358;10.746;2023-03-22T09:35:19;95939.59;;;16.27;53.96
10014;BME280;45684;48.358;10.746;2023-03-22T09:37:59;95932.31;;;16.54;55.33
10014;BME280;45684;48.358;10.746;2023-03-22T09:40:28;95935.91;;;16.58;52.63
10014;BME280;45684;48.358;10.746;2023-03-22T09:42:59;95933.97;;;16.59;53.22
10014;BME280;45684;48.358;10.746;2023-03-22T09:45:32;95918.09;;;16.45;52.69
10014;BME280;45684;48.358;10.746;2023-03-22T09:48:05;95921.75;;;16.53;52.96
10014;BME280;45684;48.358;10.746;2023-03-22T09:50:43;95920.19;;;16.52;54.56
10014;BME280;45684;48.358;10.746;2023-03-22T09:53:14;95926.50;;;16.56;53.15
10014;BME280;45684;48.358;10.746;2023-03-22T09:55:45;95923.19;;;16.86;54.14
10014;BME280;45684;48.358;10.746;2023-03-22T09:58:23;95912.50;;;17.00;52.81
10014;BME280;45684;48.358;10.746;2023-03-22T10:00:56;95924.16;;;17.20;54.37
10014;BME280;45684;48.358;10.746;2023-03-22T10:03:45;95919.63;;;17.27;51.83
10014;BME280;45684;48.358;10.746;2023-03-22T10:06:20;95910.78;;;17.38;55.14
10014;BME280;45684;48.358;10.746;2023-03-22T10:08:56;95920.56;;;17.39;51.79
10014;BME280;45684;48.358;10.746;2023-03-22T10:11:37;95919.72;;;17.34;54.20
10014;BME280;45684;48.358;10.746;2023-03-22T10:14:15;95916.84;;;17.50;51.79
10014;BME280;45684;48.358;10.746;2023-03-22T10:16:50;95917.78;;;17.58;51.23
10014;BME280;45684;48.358;10.746;2023-03-22T10:19:25;95916.59;;;17.59;50.88
10014;BME280;45684;48.358;10.746;2023-03-22T10:21:55;95912.44;;;17.69;51.19
10014;BME280;45684;48.358;10.746;2023-03-22T10:24:28;95921.94;;;17.52;50.44
10014;BME280;45684;48.358;10.746;2023-03-22T10:26:58;95918.59;;;17.62;50.75
10014;BME280;45684;48.358;10.746;2023-03-22T10:29:30;95915.59;;;17.71;48.87
10014;BME280;45684;48.358;10.746;2023-03-22T10:32:13;95914.19;;;17.54;49.46
10014;BME280;45684;48.358;10.746;2023-03-22T10:34:42;95916.53;;;17.78;50.36
10014;BME280;45684;48.358;10.746;2023-03-22T10:37:13;95905.47;;;17.98;49.26
10014;BME280;45684;48.358;10.746;2023-03-22T10:39:45;95904.81;;;18.08;51.22
10014;BME280;45684;48.358;10.746;2023-03-22T10:42:18;95898.69;;;17.88;48.97
10014;BME280;45684;48.358;10.746;2023-03-22T10:44:49;95897.88;;;18.14;50.22
10014;BME280;45684;48.358;10.746;2023-03-22T10:47:26;95900.47;;;18.37;47.85
10014;BME280;45684;48.358;10.746;2023-03-22T10:49:57;95889.72;;;18.55;48.58
10014;BME280;45684;48.358;10.746;2023-03-22T10:52:35;95897.69;;;18.67;47.20
10014;BME280;45684;48.358;10.746;2023-03-22T10:55:08;95896.88;;;18.63;46.28
10014;BME280;45684;48.358;10.746;2023-03-22T10:57:37;95879.44;;;18.45;45.58
10014;BME280;45684;48.358;10.746;2023-03-22T11:00:07;95876.41;;;18.53;46.73
10014;BME280;45684;48.358;10.746;2023-03-22T11:02:44;95864.09;;;18.36;46.38
10014;BME280;45684;48.358;10.746;2023-03-22T11:05:21;95862.00;;;18.60;46.43
10014;BME280;45684;48.358;10.746;2023-03-22T11:07:49;95858.19;;;18.68;45.67
10014;BME280;45684;48.358;10.746;2023-03-22T11:10:24;95863.47;;;18.88;46.34
10014;BME280;45684;48.358;10.746;2023-03-22T11:13:08;95856.63;;;19.11;44.42
10014;BME280;45684;48.358;10.746;2023-03-22T11:15:40;95855.22;;;19.28;45.65
10014;BME280;45684;48.358;10.746;2023-03-22T11:18:22;95858.47;;;19.45;43.43
10014;BME280;45684;48.358;10.746;2023-03-22T11:20:55;95848.28;;;19.42;43.64
10014;BME280;45684;48.358;10.746;2023-03-22T11:23:25;95844.06;;;19.58;42.39
10014;BME280;45684;48.358;10.746;2023-03-22T11:25:59;95840.63;;;19.69;42.80
10014;BME280;45684;48.358;10.746;2023-03-22T11:28:33;95840.25;;;19.70;43.20
10014;BME280;45684;48.358;10.746;2023-03-22T11:31:05;95838.78;;;19.94;42.37
10014;BME280;45684;48.358;10.746;2023-03-22T11:33:34;95833.66;;;19.85;41.57
10014;BME280;45684;48.358;10.746;2023-03-22T11:36:04;95825.41;;;19.85;41.39
10014;BME280;45684;48.358;10.746;2023-03-22T11:38:41;95823.91;;;19.95;40.44
10014;BME280;45684;48.358;10.746;2023-03-22T11:41:20;95824.34;;;20.01;40.15
10014;BME280;45684;48.358;10.746;2023-03-22T11:43:51;95820.81;;;20.07;41.46
10014;BME280;45684;48.358;10.746;2023-03-22T11:46:20;95823.22;;;20.20;39.67
10014;BME280;45684;48.358;10.746;2023-03-22T11:48:50;95809.56;;;20.45;41.03
10014;BME280;45684;48.358;10.746;2023-03-22T11:51:26;95802.56;;;20.47;39.17
10014;BME280;45684;48.358;10.746;2023-03-22T11:54:03;95811.19;;;20.60;39.45
10014;BME280;45684;48.358;10.746;2023-03-22T11:56:39;95801.41;;;20.87;39.62
10014;BME280;45684;48.358;10.746;2023-03-22T11:59:12;95808.09;;;21.15;38.42
10014;BME280;45684;48.358;10.746;2023-03-22T12:01:45;95810.44;;;20.95;38.16
10014;BME280;45684;48.358;10.746;2023-03-22T12:04:17;95812.00;;;21.07;38.92
10014;BME280;45684;48.358;10.746;2023-03-22T12:06:48;95807.31;;;21.11;37.57
10014;BME280;45684;48.358;10.746;2023-03-22T12:09:24;95798.25;;;21.25;36.73
10014;BME280;45684;48.358;10.746;2023-03-22T12:11:58;95799.81;;;21.26;36.06
10014;BME280;45684;48.358;10.746;2023-03-22T12:14:32;95797.03;;;21.65;36.83
10014;BME280;45684;48.358;10.746;2023-03-22T12:17:06;95796.22;;;21.75;35.43
10014;BME280;45684;48.358;10.746;2023-03-22T12:19:46;95799.06;;;21.47;35.25
10014;BME280;45684;48.358;10.746;2023-03-22T12:22:17;95793.94;;;21.17;35.70
10014;BME280;45684;48.358;10.746;2023-03-22T12:24:47;95782.91;;;21.59;37.02
10014;BME280;45684;48.358;10.746;2023-03-22T12:27:20;95786.88;;;21.37;35.86
10014;BME280;45684;48.358;10.746;2023-03-22T12:29:53;95786.06;;;21.40;35.12
10014;BME280;45684;48.358;10.746;2023-03-22T12:32:24;95792.78;;;21.00;35.71
10014;BME280;45684;48.358;10.746;2023-03-22T12:34:54;95792.34;;;21.48;36.79
10014;BME280;45684;48.358;10.746;2023-03-22T12:37:43;95795.91;;;21.52;35.73
10014;BME280;45684;48.358;10.746;2023-03-22T12:40:17;95789.94;;;21.75;35.04
10014;BME280;45684;48.358;10.746;2023-03-22T12:42:53;95787.97;;;21.68;34.65
10014;BME280;45684;48.358;10.746;2023-03-22T12:45:27;95778.63;;;21.05;35.33
10014;BME280;45684;48.358;10.746;2023-03-22T12:48:02;95780.97;;;21.10;35.80
10014;BME280;45684;48.358;10.746;2023-03-22T12:50:36;95768.81;;;21.18;35.08
10014;BME280;45684;48.358;10.746;2023-03-22T12:53:10;95772.75;;;20.96;34.72
10014;BME280;45684;48.358;10.746;2023-03-22T12:55:39;95769.56;;;20.51;34.88
10014;BME280;45684;48.358;10.746;2023-03-22T12:58:12;95768.78;;;20.54;36.21
10014;BME280;45684;48.358;10.746;2023-03-22T13:00:45;95767.59;;;20.51;35.81
10014;BME280;45684;48.358;10.746;2023-03-22T13:03:23;95760.97;;;20.77;35.17
10014;BME280;45684;48.358;10.746;2023-03-22T13:06:00;95755.84;;;21.15;35.20
10014;BME280;45684;48.358;10.746;2023-03-22T13:09:02;95747.94;;;21.49;34.84
10014;BME280;45684;48.358;10.746;2023-03-22T13:11:38;95758.53;;;21.58;35.35
10014;BME280;45684;48.358;10.746;2023-03-22T13:14:11;95763.28;;;21.50;35.40
10014;BME280;45684;48.358;10.746;2023-03-22T13:16:58;95749.91;;;21.52;35.41
10014;BME280;45684;48.358;10.746;2023-03-22T13:19:31;95753.47;;;21.35;35.07
10014;BME280;45684;48.358;10.746;2023-03-22T13:22:19;95750.72;;;21.03;35.13
10014;BME280;45684;48.358;10.746;2023-03-22T13:25:11;95742.44;;;20.46;36.45
10014;BME280;45684;48.358;10.746;2023-03-22T13:27:50;95734.59;;;20.37;35.75
10014;BME280;45684;48.358;10.746;2023-03-22T13:30:25;95734.66;;;20.48;35.49